createdAt,value
2023-03-26T04:00:36.812Z,7.22
2023-03-26T04:01:38.463Z,7.24
2023-03-26T04:02:37.881Z,7.29
2023-03-26T04:03:37.951Z,7.23
2023-03-26T04:04:37.844Z,7.22
2023-03-26T04:05:37.812Z,7.22
2023-03-26T04:06:37.747Z,7.27
2023-03-26T04:07:37.750Z,7.24
2023-03-26T04:08:37.746Z,7.26
2023-03-26T04:09:37.742Z,7.24
2023-03-26T04:10:37.719Z,7.22
2023-03-26T04:11:37.690Z,7.22
2023-03-26T04:12:37.698Z,7.22
2023-03-26T04:13:37.676Z,7.23
2023-03-26T04:14:37.682Z,7.20
2023-03-26T04:15:37.735Z,7.20
2023-03-26T04:16:37.887Z,7.19
2023-03-26T04:17:37.681Z,7.16
2023-03-26T04:18:37.622Z,7.17
2023-03-26T04:19:37.652Z,7.20
2023-03-26T04:20:38.140Z,7.16
2023-03-26T04:21:37.613Z,7.19
2023-03-26T04:22:37.601Z,7.17
2023-03-26T04:23:37.587Z,7.19
2023-03-26T04:24:37.554Z,7.16
2023-03-26T04:25:37.503Z,7.15
2023-03-26T04:26:37.587Z,7.15
2023-03-26T04:27:37.537Z,7.13
2023-03-26T04:28:38.239Z,7.12
2023-03-26T04:29:37.455Z,7.12
2023-03-26T04:30:37.437Z,7.08
2023-03-26T04:31:37.538Z,7.12
2023-03-26T04:32:37.446Z,7.12
2023-03-26T04:33:37.417Z,7.12
2023-03-26T04:34:37.474Z,7.12
2023-03-26T04:35:37.422Z,7.13
2023-03-26T04:36:37.391Z,7.09
2023-03-26T04:37:37.441Z,7.09
2023-03-26T04:38:37.360Z,7.07
2023-03-26T04:39:37.403Z,7.07
2023-03-26T04:40:37.363Z,7.08
2023-03-26T04:41:37.362Z,7.09
2023-03-26T04:42:37.323Z,7.09
2023-03-26T04:43:37.327Z,7.09
2023-03-26T04:44:37.300Z,7.12
2023-03-26T04:45:37.353Z,7.07
2023-03-26T04:46:37.307Z,7.08
2023-03-26T04:47:37.396Z,7.08
2023-03-26T04:48:37.307Z,7.07
2023-03-26T04:49:37.262Z,7.02
2023-03-26T04:50:37.264Z,7.02
2023-03-26T04:51:37.237Z,6.97
2023-03-26T04:52:37.252Z,6.95
2023-03-26T04:53:37.277Z,6.97
2023-03-26T04:54:37.244Z,6.94
2023-03-26T04:55:37.181Z,6.95
2023-03-26T04:56:37.217Z,6.94
2023-03-26T04:57:37.178Z,6.91
2023-03-26T04:58:37.173Z,6.95
2023-03-26T04:59:37.212Z,6.91
2023-03-26T05:00:37.166Z,6.90
2023-03-26T05:01:37.146Z,6.89
2023-03-26T05:02:37.128Z,6.89
2023-03-26T05:03:37.087Z,6.91
2023-03-26T05:04:37.127Z,6.91
2023-03-26T05:05:37.094Z,6.91
2023-03-26T05:06:37.049Z,6.89
2023-03-26T05:07:37.095Z,6.95
2023-03-26T05:08:37.048Z,6.94
2023-03-26T05:09:37.008Z,6.91
2023-03-26T05:10:37.014Z,6.97
2023-03-26T05:11:37.018Z,6.95
2023-03-26T05:12:37.014Z,6.95
2023-03-26T05:13:36.975Z,7.02
2023-03-26T05:14:36.982Z,6.98
2023-03-26T05:15:36.985Z,7.04
2023-03-26T05:16:36.977Z,7.02
2023-03-26T05:17:36.964Z,7.02
2023-03-26T05:18:36.969Z,7.04
2023-03-26T05:19:36.956Z,7.05
2023-03-26T05:20:37.010Z,7.05
2023-03-26T05:21:36.900Z,7.08
2023-03-26T05:22:38.151Z,7.12
2023-03-26T05:23:36.886Z,7.09
2023-03-26T05:24:36.880Z,7.09
2023-03-26T05:25:36.881Z,7.09
2023-03-26T05:26:36.932Z,7.12
2023-03-26T05:27:36.848Z,7.09
2023-03-26T05:28:36.841Z,7.08
2023-03-26T05:29:36.812Z,7.09
2023-03-26T05:30:36.831Z,7.15
2023-03-26T05:31:36.836Z,7.13
2023-03-26T05:32:36.864Z,7.17
2023-03-26T05:33:36.914Z,7.16
2023-03-26T05:34:36.767Z,7.16
2023-03-26T05:35:36.805Z,7.16
2023-03-26T05:36:36.760Z,7.16
2023-03-26T05:37:36.774Z,7.16
2023-03-26T05:38:36.795Z,7.17
2023-03-26T05:39:36.694Z,7.17
2023-03-26T05:40:36.764Z,7.17
2023-03-26T05:41:36.688Z,7.22
2023-03-26T05:42:36.694Z,7.22
2023-03-26T05:43:37.293Z,7.20
2023-03-26T05:44:36.688Z,7.24
2023-03-26T05:45:36.719Z,7.26
2023-03-26T05:46:36.759Z,7.27
2023-03-26T05:47:36.673Z,7.34
2023-03-26T05:48:36.606Z,7.29
2023-03-26T05:49:36.611Z,7.32
2023-03-26T05:50:36.607Z,7.32
2023-03-26T05:51:36.604Z,7.34
2023-03-26T05:52:36.566Z,7.34
2023-03-26T05:53:36.624Z,7.34
2023-03-26T05:54:36.543Z,7.37
2023-03-26T05:55:36.539Z,7.35
2023-03-26T05:56:36.572Z,7.32
2023-03-26T05:57:36.545Z,7.32
2023-03-26T05:58:36.533Z,7.38
2023-03-26T05:59:36.561Z,7.32
2023-03-26T06:00:36.489Z,7.34
2023-03-26T06:01:36.464Z,7.37
2023-03-26T06:02:36.513Z,7.37
2023-03-26T06:03:36.561Z,7.38
2023-03-26T06:04:36.576Z,7.40
2023-03-26T06:05:36.479Z,7.42
2023-03-26T06:06:36.432Z,7.41
2023-03-26T06:07:36.409Z,7.42
2023-03-26T06:08:36.424Z,7.42
2023-03-26T06:09:36.422Z,7.40
2023-03-26T06:10:36.399Z,7.42
2023-03-26T06:11:36.443Z,7.40
2023-03-26T06:12:36.349Z,7.41
2023-03-26T06:13:36.339Z,7.41
2023-03-26T06:14:36.338Z,7.41
2023-03-26T06:15:36.363Z,7.40
2023-03-26T06:16:36.444Z,7.42
2023-03-26T06:17:36.425Z,7.41
2023-03-26T06:18:36.393Z,7.44
2023-03-26T06:19:36.282Z,7.49
2023-03-26T06:20:36.260Z,7.47
2023-03-26T06:21:36.297Z,7.47
2023-03-26T06:22:36.318Z,7.44
2023-03-26T06:23:36.222Z,7.47
2023-03-26T06:24:36.265Z,7.47
2023-03-26T06:25:36.234Z,7.47
2023-03-26T06:26:36.225Z,7.58
2023-03-26T06:27:36.182Z,7.56
2023-03-26T06:28:36.191Z,7.56
2023-03-26T06:29:36.219Z,7.59
2023-03-26T06:30:36.207Z,7.60
2023-03-26T06:31:36.221Z,7.66
2023-03-26T06:32:36.211Z,7.69
2023-03-26T06:33:36.142Z,7.74
2023-03-26T06:34:36.112Z,7.72
2023-03-26T06:35:36.160Z,7.67
2023-03-26T06:36:36.147Z,7.71
2023-03-26T06:37:36.146Z,7.69
2023-03-26T06:38:36.077Z,7.69
2023-03-26T06:39:36.158Z,7.74
2023-03-26T06:40:36.049Z,7.66
2023-03-26T06:41:36.073Z,7.66
2023-03-26T06:43:08.989Z,7.67
2023-03-26T06:43:36.059Z,7.72
2023-03-26T06:44:36.012Z,7.75
2023-03-26T06:45:36.018Z,7.66
2023-03-26T06:46:36.069Z,7.67
2023-03-26T06:47:35.973Z,7.66
2023-03-26T06:48:36.086Z,7.60
2023-03-26T06:49:36.018Z,7.59
2023-03-26T06:50:35.997Z,7.56
2023-03-26T06:51:35.923Z,7.59
2023-03-26T06:52:35.921Z,7.58
2023-03-26T06:53:35.918Z,7.55
2023-03-26T06:54:35.932Z,7.60
2023-03-26T06:55:35.928Z,7.58
2023-03-26T06:56:35.936Z,7.67
2023-03-26T06:57:35.874Z,7.69
2023-03-26T06:58:35.868Z,7.71
2023-03-26T06:59:35.860Z,7.69
2023-03-26T07:00:35.879Z,7.69
2023-03-26T07:01:35.922Z,7.74
2023-03-26T07:02:35.893Z,7.78
2023-03-26T07:03:35.834Z,7.77
2023-03-26T07:04:35.867Z,7.75
2023-03-26T07:05:35.816Z,7.74
2023-03-26T07:06:35.791Z,7.72
2023-03-26T07:07:36.281Z,7.74
2023-03-26T07:08:35.987Z,7.77
2023-03-26T07:09:35.750Z,7.81
2023-03-26T07:10:35.775Z,7.75
2023-03-26T07:11:35.818Z,7.77
2023-03-26T07:12:35.745Z,7.82
2023-03-26T07:13:35.709Z,7.89
2023-03-26T07:14:35.722Z,7.93
2023-03-26T07:15:35.697Z,7.97
2023-03-26T07:16:35.817Z,8.02
2023-03-26T07:17:35.713Z,8.02
2023-03-26T07:18:35.674Z,8.03
2023-03-26T07:19:35.688Z,8.08
2023-03-26T07:20:35.646Z,8.15
2023-03-26T07:21:35.648Z,8.20
2023-03-26T07:22:36.102Z,8.25
2023-03-26T07:23:35.569Z,8.26
2023-03-26T07:24:35.608Z,8.22
2023-03-26T07:25:35.685Z,8.20
2023-03-26T07:26:35.567Z,8.25
2023-03-26T07:27:35.565Z,8.18
2023-03-26T07:28:35.609Z,8.21
2023-03-26T07:29:35.523Z,8.25
2023-03-26T07:30:35.515Z,8.25
2023-03-26T07:31:35.581Z,8.25
2023-03-26T07:32:35.516Z,8.28
2023-03-26T07:33:35.519Z,8.30
2023-03-26T07:34:35.514Z,8.33
2023-03-26T07:35:35.487Z,8.33
2023-03-26T07:36:35.450Z,8.35
2023-03-26T07:37:35.524Z,8.25
2023-03-26T07:38:35.467Z,8.17
2023-03-26T07:39:35.506Z,8.11
2023-03-26T07:40:35.496Z,8.10
2023-03-26T07:41:35.396Z,8.03
2023-03-26T07:42:35.373Z,8.03
2023-03-26T07:43:35.350Z,8.00
2023-03-26T07:44:35.905Z,8.04
2023-03-26T07:45:35.391Z,7.99
2023-03-26T07:46:35.369Z,7.99
2023-03-26T07:47:35.351Z,8.03
2023-03-26T07:48:35.313Z,7.96
2023-03-26T07:49:35.311Z,7.96
2023-03-26T07:50:35.308Z,7.96
2023-03-26T07:51:35.323Z,7.94
2023-03-26T07:52:35.301Z,7.96
2023-03-26T07:53:35.300Z,8.02
2023-03-26T07:54:35.311Z,8.04
2023-03-26T07:55:35.306Z,7.99
2023-03-26T07:56:35.293Z,8.02
2023-03-26T07:57:35.267Z,8.02
2023-03-26T07:58:35.274Z,7.99
2023-03-26T07:59:35.228Z,8.02
2023-03-26T08:00:35.355Z,8.04
2023-03-26T08:01:35.167Z,8.10
2023-03-26T08:02:35.217Z,8.14
2023-03-26T08:03:35.301Z,8.18
2023-03-26T08:04:35.236Z,8.17
2023-03-26T08:05:35.190Z,8.07
2023-03-26T08:06:35.178Z,8.02
2023-03-26T08:07:35.178Z,8.04
2023-03-26T08:08:35.091Z,8.02
2023-03-26T08:09:35.111Z,8.02
2023-03-26T08:10:35.088Z,7.99
2023-03-26T08:11:35.097Z,7.93
2023-03-26T08:12:35.140Z,7.94
2023-03-26T08:13:35.037Z,7.94
2023-03-26T08:14:35.045Z,7.93
2023-03-26T08:15:35.072Z,7.90
2023-03-26T08:16:35.372Z,7.92
2023-03-26T08:17:35.176Z,7.94
2023-03-26T08:18:36.308Z,7.97
2023-03-26T08:19:35.111Z,8.02
2023-03-26T08:20:35.061Z,7.96
2023-03-26T08:21:35.142Z,7.93
2023-03-26T08:22:35.045Z,8.00
2023-03-26T08:23:34.966Z,8.03
2023-03-26T08:24:35.025Z,8.04
2023-03-26T08:25:36.654Z,8.07
2023-03-26T08:26:35.031Z,8.12
2023-03-26T08:27:34.989Z,8.14
2023-03-26T08:28:34.990Z,8.17
2023-03-26T08:29:34.993Z,8.20
2023-03-26T08:30:34.892Z,8.21
2023-03-26T08:31:35.069Z,8.21
2023-03-26T08:32:34.982Z,8.20
2023-03-26T08:33:37.060Z,8.20
2023-03-26T08:34:34.859Z,8.18
2023-03-26T08:35:34.890Z,8.21
2023-03-26T08:36:34.826Z,8.21
2023-03-26T08:37:34.835Z,8.28
2023-03-26T08:38:34.859Z,8.35
2023-03-26T08:39:34.779Z,8.29
2023-03-26T08:40:34.760Z,8.32
2023-03-26T08:41:34.870Z,8.35
2023-03-26T08:42:34.776Z,8.35
2023-03-26T08:43:34.777Z,8.40
2023-03-26T08:44:34.771Z,8.42
2023-03-26T08:45:34.762Z,8.37
2023-03-26T08:46:34.739Z,8.32
2023-03-26T08:47:34.707Z,8.33
2023-03-26T08:48:34.711Z,8.33
2023-03-26T08:49:34.673Z,8.32
2023-03-26T08:50:34.703Z,8.28
2023-03-26T08:51:34.688Z,8.30
2023-03-26T08:52:34.617Z,8.32
2023-03-26T08:53:34.628Z,8.40
2023-03-26T08:54:34.679Z,8.48
2023-03-26T08:55:34.615Z,8.55
2023-03-26T08:56:34.619Z,8.60
2023-03-26T08:57:34.560Z,8.55
2023-03-26T08:58:34.673Z,8.65
2023-03-26T08:59:34.570Z,8.69
2023-03-26T09:00:34.532Z,8.58
2023-03-26T09:01:34.618Z,8.65
2023-03-26T09:02:34.546Z,8.75
2023-03-26T09:03:34.549Z,8.81
2023-03-26T09:04:34.472Z,8.81
2023-03-26T09:05:34.601Z,8.81
2023-03-26T09:06:34.464Z,8.69
2023-03-26T09:07:34.464Z,8.63
2023-03-26T09:08:34.477Z,8.66
2023-03-26T09:09:34.488Z,8.69
2023-03-26T09:10:34.473Z,8.68
2023-03-26T09:11:34.461Z,8.65
2023-03-26T09:12:34.529Z,8.58
2023-03-26T09:13:34.414Z,8.62
2023-03-26T09:14:34.407Z,8.68
2023-03-26T09:15:34.383Z,8.73
2023-03-26T09:16:34.412Z,8.75
2023-03-26T09:17:34.346Z,8.73
2023-03-26T09:18:34.362Z,8.73
2023-03-26T09:19:34.321Z,8.78
2023-03-26T09:20:34.320Z,8.79
2023-03-26T09:21:34.342Z,8.84
2023-03-26T09:22:34.339Z,8.88
2023-03-26T09:23:34.331Z,8.94
2023-03-26T09:24:34.294Z,9.02
2023-03-26T09:25:34.278Z,9.09
2023-03-26T09:26:34.260Z,9.20
2023-03-26T09:27:34.656Z,9.24
2023-03-26T09:28:34.258Z,9.31
2023-03-26T09:29:34.210Z,9.39
2023-03-26T09:30:34.229Z,9.35
2023-03-26T09:31:34.225Z,9.25
2023-03-26T09:32:34.210Z,9.21
2023-03-26T09:33:34.307Z,9.15
2023-03-26T09:34:34.155Z,9.25
2023-03-26T09:35:34.215Z,9.31
2023-03-26T09:36:34.150Z,9.31
2023-03-26T09:37:34.132Z,9.34
2023-03-26T09:38:34.120Z,9.32
2023-03-26T09:39:34.173Z,9.27
2023-03-26T09:40:34.115Z,9.23
2023-03-26T09:41:34.085Z,9.34
2023-03-26T09:42:34.094Z,9.25
2023-03-26T09:43:34.067Z,9.34
2023-03-26T09:44:34.056Z,9.35
2023-03-26T09:45:34.072Z,9.43
2023-03-26T09:46:34.032Z,9.34
2023-03-26T09:47:34.048Z,9.34
2023-03-26T09:48:34.010Z,9.31
2023-03-26T09:49:33.999Z,9.35
2023-03-26T09:50:34.006Z,9.43
2023-03-26T09:51:33.994Z,9.50
2023-03-26T09:52:33.990Z,9.60
2023-03-26T09:53:33.976Z,9.67
2023-03-26T09:54:33.980Z,9.66
2023-03-26T09:55:33.937Z,9.63
2023-03-26T09:56:33.963Z,9.49
2023-03-26T09:57:33.941Z,9.45
2023-03-26T09:58:33.952Z,9.43
2023-03-26T09:59:33.975Z,9.56
2023-03-26T10:00:33.888Z,9.63
2023-03-26T10:01:33.933Z,9.64
2023-03-26T10:02:45.995Z,9.71
2023-03-26T10:03:33.904Z,9.71
2023-03-26T10:04:33.862Z,9.61
2023-03-26T10:05:33.853Z,9.64
2023-03-26T10:06:33.813Z,9.61
2023-03-26T10:07:33.876Z,9.63
2023-03-26T10:08:33.807Z,9.68
2023-03-26T10:09:33.785Z,9.68
2023-03-26T10:10:33.786Z,9.66
2023-03-26T10:11:33.794Z,9.78
2023-03-26T10:12:33.789Z,9.75
2023-03-26T10:13:33.780Z,9.76
2023-03-26T10:14:33.714Z,9.82
2023-03-26T10:15:33.730Z,9.85
2023-03-26T10:16:33.798Z,9.93
2023-03-26T10:17:33.809Z,9.91
2023-03-26T10:18:33.690Z,9.81
2023-03-26T10:19:33.678Z,9.81
2023-03-26T10:20:33.705Z,9.68
2023-03-26T10:21:33.650Z,9.64
2023-03-26T10:22:33.651Z,9.70
2023-03-26T10:23:33.658Z,9.68
2023-03-26T10:24:33.625Z,9.78
2023-03-26T10:25:33.608Z,9.81
2023-03-26T10:26:33.764Z,9.81
2023-03-26T10:27:33.603Z,9.83
2023-03-26T10:28:33.589Z,9.83
2023-03-26T10:29:33.623Z,9.89
2023-03-26T10:30:33.582Z,9.97
2023-03-26T10:31:33.564Z,9.94
2023-03-26T10:32:33.609Z,9.82
2023-03-26T10:33:33.526Z,9.68
2023-03-26T10:34:33.535Z,9.56
2023-03-26T10:35:33.631Z,9.67
2023-03-26T10:36:33.545Z,9.66
2023-03-26T10:37:33.499Z,9.73
2023-03-26T10:38:33.467Z,9.66
2023-03-26T10:39:38.062Z,9.66
2023-03-26T10:40:33.465Z,9.70
2023-03-26T10:41:33.453Z,9.78
2023-03-26T10:42:33.426Z,9.75
2023-03-26T10:43:33.432Z,9.75
2023-03-26T10:44:33.390Z,9.82
2023-03-26T10:45:33.391Z,9.86
2023-03-26T10:46:33.433Z,9.91
2023-03-26T10:47:33.386Z,9.94
2023-03-26T10:48:33.361Z,9.91
2023-03-26T10:49:33.374Z,9.82
2023-03-26T10:50:33.339Z,9.68
2023-03-26T10:51:33.344Z,9.66
2023-03-26T10:52:33.307Z,9.67
2023-03-26T10:53:33.345Z,9.71
2023-03-26T10:54:33.338Z,9.82
2023-03-26T10:55:33.304Z,9.79
2023-03-26T10:56:33.293Z,9.73
2023-03-26T10:57:33.299Z,9.68
2023-03-26T10:58:48.398Z,9.66
2023-03-26T10:59:33.249Z,9.70
2023-03-26T11:00:33.251Z,9.75
2023-03-26T11:01:33.321Z,9.82
2023-03-26T11:02:33.249Z,9.86
2023-03-26T11:03:33.225Z,9.97
2023-03-26T11:04:33.184Z,10.00
2023-03-26T11:05:33.229Z,10.04
2023-03-26T11:06:33.167Z,10.12
2023-03-26T11:07:33.148Z,10.21
2023-03-26T11:08:33.159Z,10.24
2023-03-26T11:09:33.207Z,10.28
2023-03-26T11:10:33.112Z,10.28
2023-03-26T11:11:33.111Z,10.28
2023-03-26T11:12:33.094Z,10.33
2023-03-26T11:13:33.118Z,10.51
2023-03-26T11:14:35.227Z,10.74
2023-03-26T11:15:33.091Z,10.94
2023-03-26T11:16:33.048Z,11.13
2023-03-26T11:17:40.734Z,11.13
2023-03-26T11:18:33.034Z,11.03
2023-03-26T11:19:33.079Z,11.09
2023-03-26T11:20:33.031Z,11.19
2023-03-26T11:21:33.024Z,11.06
2023-03-26T11:22:33.008Z,10.88
2023-03-26T11:23:33.001Z,10.83
2023-03-26T11:24:32.974Z,10.81
2023-03-26T11:25:32.968Z,10.83
2023-03-26T11:26:32.961Z,10.76
2023-03-26T11:27:32.951Z,10.74
2023-03-26T11:28:32.931Z,10.80
2023-03-26T11:29:33.609Z,10.65
2023-03-26T11:30:33.507Z,10.77
2023-03-26T11:31:32.943Z,10.74
2023-03-26T11:32:32.888Z,10.83
2023-03-26T11:33:33.059Z,10.80
2023-03-26T11:34:32.871Z,10.73
2023-03-26T11:35:40.667Z,10.63
2023-03-26T11:36:32.866Z,10.53
2023-03-26T11:37:32.825Z,10.46
2023-03-26T11:38:32.855Z,10.42
2023-03-26T11:39:32.824Z,10.36
2023-03-26T11:40:32.811Z,10.40
2023-03-26T11:41:32.849Z,10.43
2023-03-26T11:42:33.016Z,10.47
2023-03-26T11:43:32.839Z,10.58
2023-03-26T11:44:32.747Z,10.66
2023-03-26T11:45:32.780Z,10.71
2023-03-26T11:46:33.806Z,10.68
2023-03-26T11:47:32.750Z,10.66
2023-03-26T11:48:32.721Z,10.60
2023-03-26T11:49:32.698Z,10.55
2023-03-26T11:50:32.736Z,10.55
2023-03-26T11:51:32.700Z,10.56
2023-03-26T11:52:32.673Z,10.58
2023-03-26T11:53:32.678Z,10.51
2023-03-26T11:54:32.675Z,10.44
2023-03-26T11:55:32.645Z,10.42
2023-03-26T11:56:32.701Z,10.37
2023-03-26T11:57:32.683Z,10.39
2023-03-26T11:58:32.593Z,10.37
2023-03-26T11:59:33.846Z,10.34
2023-03-26T12:00:32.576Z,10.43
2023-03-26T12:01:32.580Z,10.46
2023-03-26T12:02:33.006Z,10.52
2023-03-26T12:03:32.535Z,10.59
2023-03-26T12:04:32.645Z,10.60
2023-03-26T12:05:32.606Z,10.65
2023-03-26T12:06:32.545Z,10.59
2023-03-26T12:07:32.494Z,10.62
2023-03-26T12:08:32.572Z,10.68
2023-03-26T12:09:32.479Z,10.76
2023-03-26T12:10:32.485Z,10.81
2023-03-26T12:11:34.666Z,10.86
2023-03-26T12:12:32.442Z,10.83
2023-03-26T12:13:32.426Z,10.96
2023-03-26T12:14:32.437Z,10.96
2023-03-26T12:15:32.479Z,10.92
2023-03-26T12:16:32.516Z,10.84
2023-03-26T12:17:32.432Z,10.88
2023-03-26T12:18:32.374Z,10.92
2023-03-26T12:19:32.365Z,10.94
2023-03-26T12:20:32.422Z,10.96
2023-03-26T12:21:32.341Z,10.99
2023-03-26T12:22:32.355Z,10.94
2023-03-26T12:23:32.317Z,10.92
2023-03-26T12:24:32.329Z,10.92
2023-03-26T12:25:32.323Z,10.99
2023-03-26T12:26:32.339Z,11.11
2023-03-26T12:27:32.278Z,11.16
2023-03-26T12:28:32.270Z,11.32
2023-03-26T12:29:32.280Z,11.46
2023-03-26T12:30:32.263Z,11.74
2023-03-26T12:31:32.260Z,11.89
2023-03-26T12:32:43.451Z,11.93
2023-03-26T12:33:32.285Z,11.87
2023-03-26T12:34:32.239Z,11.86
2023-03-26T12:35:32.233Z,11.82
2023-03-26T12:36:32.186Z,11.85
2023-03-26T12:37:32.182Z,11.82
2023-03-26T12:38:32.190Z,11.75
2023-03-26T12:40:09.584Z,11.80
2023-03-26T12:40:32.145Z,11.83
2023-03-26T12:44:51.448Z,11.94
2023-03-26T12:45:02.421Z,12.04
2023-03-26T12:45:07.848Z,12.21
2023-03-26T12:47:56.432Z,12.20
2023-03-26T12:48:07.362Z,12.38
2023-03-26T12:48:13.706Z,12.81
2023-03-26T12:49:13.055Z,12.96
2023-03-26T12:50:12.860Z,13.20
2023-03-26T12:51:12.834Z,13.29
2023-03-26T12:52:12.840Z,13.44
2023-03-26T12:53:12.883Z,13.38
2023-03-26T12:54:12.801Z,13.02
2023-03-26T12:55:12.821Z,12.62
2023-03-26T12:56:12.795Z,12.74
2023-03-26T12:57:13.510Z,12.63
2023-03-26T12:58:13.299Z,12.49
2023-03-26T12:59:12.726Z,12.42
2023-03-26T13:00:12.732Z,12.49
2023-03-26T13:01:12.784Z,12.63
2023-03-26T13:02:12.763Z,12.56
2023-03-26T13:03:12.836Z,12.52
2023-03-26T13:04:12.718Z,12.60
2023-03-26T13:05:12.709Z,12.71
2023-03-26T13:06:12.671Z,12.69
2023-03-26T13:07:12.668Z,12.56
2023-03-26T13:08:12.657Z,12.31
2023-03-26T13:09:12.724Z,12.11
2023-03-26T13:10:12.645Z,11.86
2023-03-26T13:11:12.636Z,11.72
2023-03-26T13:12:12.616Z,11.64
2023-03-26T13:13:12.591Z,11.62
2023-03-26T13:14:12.582Z,11.86
2023-03-26T13:15:12.578Z,12.01
2023-03-26T13:16:12.579Z,11.94
2023-03-26T13:17:12.587Z,11.85
2023-03-26T13:18:12.554Z,11.74
2023-03-26T13:19:12.539Z,11.68
2023-03-26T13:20:12.654Z,11.65
2023-03-26T13:21:12.974Z,11.57
2023-03-26T13:22:12.496Z,11.53
2023-03-26T13:23:12.480Z,11.56
2023-03-26T13:24:13.044Z,11.61
2023-03-26T13:25:12.461Z,11.59
2023-03-26T13:26:12.459Z,11.56
2023-03-26T13:27:12.473Z,11.62
2023-03-26T13:28:12.460Z,11.70
2023-03-26T13:29:12.431Z,11.67
2023-03-26T13:30:12.428Z,11.62
2023-03-26T13:31:12.479Z,11.56
2023-03-26T13:32:12.391Z,11.54
2023-03-26T13:33:12.396Z,11.53
2023-03-26T13:34:12.382Z,11.50
2023-03-26T13:35:12.397Z,11.47
2023-03-26T13:36:23.248Z,11.38
2023-03-26T13:37:12.411Z,11.36
2023-03-26T13:38:12.316Z,11.34
2023-03-26T13:39:12.320Z,11.35
2023-03-26T13:40:12.347Z,11.44
2023-03-26T13:41:12.325Z,11.39
2023-03-26T13:42:12.282Z,11.32
2023-03-26T13:43:12.271Z,11.29
2023-03-26T13:44:12.260Z,11.32
2023-03-26T13:45:12.248Z,11.36
2023-03-26T13:46:12.265Z,11.57
2023-03-26T13:47:12.225Z,11.74
2023-03-26T13:48:12.206Z,11.82
2023-03-26T13:49:12.201Z,11.96
2023-03-26T13:50:12.235Z,12.27
2023-03-26T13:51:12.196Z,12.38
2023-03-26T13:52:12.184Z,12.48
2023-03-26T13:53:12.202Z,12.97
2023-03-26T13:54:12.149Z,13.09
2023-03-26T13:55:12.145Z,13.27
2023-03-26T13:56:12.157Z,13.43
2023-03-26T13:57:12.142Z,13.58
2023-03-26T13:58:12.151Z,14.06
2023-03-26T13:59:12.114Z,14.28
2023-03-26T14:00:12.101Z,14.01
2023-03-26T14:01:12.139Z,14.17
2023-03-26T14:02:12.068Z,14.34
2023-03-26T14:03:12.065Z,13.79
2023-03-26T14:04:12.090Z,14.01
2023-03-26T14:05:12.153Z,14.64
2023-03-26T14:06:12.033Z,14.69
2023-03-26T14:07:12.057Z,14.86
2023-03-26T14:08:11.994Z,14.56
2023-03-26T14:09:12.016Z,14.47
2023-03-26T14:10:11.975Z,14.37
2023-03-26T14:11:11.959Z,14.04
2023-03-26T14:12:20.992Z,13.61
2023-03-26T14:13:11.943Z,13.70
2023-03-26T14:14:11.930Z,13.58
2023-03-26T14:15:11.939Z,13.49
2023-03-26T14:16:11.948Z,13.56
2023-03-26T14:17:11.930Z,13.95
2023-03-26T14:18:11.885Z,14.19
2023-03-26T14:19:11.900Z,13.95
2023-03-26T14:20:11.896Z,13.96
2023-03-26T14:21:11.857Z,14.43
2023-03-26T14:22:11.864Z,14.68
2023-03-26T14:23:11.864Z,14.27
2023-03-26T14:24:11.854Z,14.43
2023-03-26T14:25:11.844Z,14.64
2023-03-26T14:26:11.804Z,14.72
2023-03-26T14:27:11.794Z,14.78
2023-03-26T14:28:11.826Z,14.81
2023-03-26T14:29:11.782Z,14.86
2023-03-26T14:30:11.743Z,14.54
2023-03-26T14:31:11.820Z,13.83
2023-03-26T14:32:11.763Z,13.49
2023-03-26T14:33:11.747Z,13.40
2023-03-26T14:34:11.715Z,13.44
2023-03-26T14:35:11.736Z,13.59
2023-03-26T14:36:11.711Z,14.07
2023-03-26T14:37:11.695Z,13.83
2023-03-26T14:38:11.688Z,13.55
2023-03-26T14:39:11.646Z,13.18
2023-03-26T14:40:11.647Z,13.27
2023-03-26T14:41:11.628Z,13.37
2023-03-26T14:42:11.679Z,13.55
2023-03-26T14:43:11.991Z,13.55
2023-03-26T14:44:11.629Z,13.62
2023-03-26T14:45:11.621Z,13.96
2023-03-26T14:46:11.604Z,14.12
2023-03-26T14:47:14.526Z,13.81
2023-03-26T14:48:11.754Z,13.38
2023-03-26T14:49:11.551Z,13.49
2023-03-26T14:50:11.540Z,13.74
2023-03-26T14:51:11.557Z,13.83
2023-03-26T14:52:11.770Z,13.99
2023-03-26T14:53:11.510Z,13.77
2023-03-26T14:54:11.530Z,13.22
2023-03-26T14:55:11.480Z,13.12
2023-03-26T14:56:12.452Z,12.84
2023-03-26T14:57:11.571Z,12.81
2023-03-26T14:58:11.482Z,12.78
2023-03-26T14:59:12.398Z,12.97
2023-03-26T15:00:11.451Z,12.85
2023-03-26T15:01:11.502Z,13.14
2023-03-26T15:02:11.508Z,13.41
2023-03-26T15:03:11.466Z,13.46
2023-03-26T15:04:11.415Z,13.41
2023-03-26T15:05:11.449Z,13.69
2023-03-26T15:06:11.369Z,13.98
2023-03-26T15:07:11.405Z,13.76
2023-03-26T15:08:11.360Z,13.84
2023-03-26T15:09:11.353Z,13.76
2023-03-26T15:10:11.364Z,13.77
2023-03-26T15:11:11.298Z,13.65
2023-03-26T15:12:12.430Z,13.61
2023-03-26T15:13:11.321Z,13.63
2023-03-26T15:14:11.329Z,13.76
2023-03-26T15:15:11.287Z,14.04
2023-03-26T15:16:11.297Z,13.94
2023-03-26T15:17:11.249Z,13.73
2023-03-26T15:18:11.241Z,13.63
2023-03-26T15:19:11.234Z,13.67
2023-03-26T15:20:11.263Z,13.79
2023-03-26T15:21:11.255Z,13.73
2023-03-26T15:22:11.197Z,13.58
2023-03-26T15:23:11.243Z,13.71
2023-03-26T15:24:11.202Z,13.51
2023-03-26T15:25:11.157Z,13.20
2023-03-26T15:26:11.168Z,13.27
2023-03-26T15:27:11.140Z,13.41
2023-03-26T15:28:11.180Z,13.56
2023-03-26T15:29:11.130Z,13.73
2023-03-26T15:30:11.119Z,13.58
2023-03-26T15:31:11.113Z,13.15
2023-03-26T15:32:11.077Z,12.95
2023-03-26T15:33:11.060Z,12.99
2023-03-26T15:34:11.110Z,12.99
2023-03-26T15:35:11.058Z,12.70
2023-03-26T15:36:11.050Z,12.62
2023-03-26T15:37:11.030Z,12.38
2023-03-26T15:38:11.021Z,12.33
2023-03-26T15:39:11.019Z,12.51
2023-03-26T15:40:11.003Z,12.64
2023-03-26T15:41:11.012Z,12.79
2023-03-26T15:42:10.989Z,12.71
2023-03-26T15:43:10.950Z,12.48
2023-03-26T15:44:24.813Z,12.27
2023-03-26T15:45:10.942Z,12.24
2023-03-26T15:46:11.228Z,12.24
2023-03-26T15:47:10.913Z,12.37
2023-03-26T15:48:11.620Z,12.27
2023-03-26T15:49:10.889Z,12.23
2023-03-26T15:50:10.914Z,12.08
2023-03-26T15:51:10.866Z,11.90
2023-03-26T15:52:10.970Z,11.77
2023-03-26T15:53:10.846Z,11.68
2023-03-26T15:54:10.842Z,11.71
2023-03-26T15:55:11.308Z,11.77
2023-03-26T15:56:10.872Z,11.83
2023-03-26T15:57:10.856Z,11.83
2023-03-26T15:58:10.790Z,11.80
2023-03-26T15:59:10.835Z,11.71
2023-03-26T16:00:10.783Z,11.71
2023-03-26T16:01:10.812Z,11.62
2023-03-26T16:02:10.745Z,11.64
2023-03-26T16:03:10.783Z,11.56
2023-03-26T16:04:10.752Z,11.49
2023-03-26T16:05:10.740Z,11.47
2023-03-26T16:06:10.716Z,11.52
2023-03-26T16:07:10.712Z,11.50
2023-03-26T16:08:10.681Z,11.49
2023-03-26T16:09:10.663Z,11.38
2023-03-26T16:10:10.729Z,11.38
2023-03-26T16:11:10.648Z,11.43
2023-03-26T16:12:10.622Z,11.38
2023-03-26T16:13:10.633Z,11.28
2023-03-26T16:14:10.642Z,11.25
2023-03-26T16:15:10.634Z,11.19
2023-03-26T16:16:10.647Z,11.16
2023-03-26T16:17:10.605Z,11.19
2023-03-26T16:18:10.639Z,11.19
2023-03-26T16:19:10.590Z,11.14
2023-03-26T16:20:10.537Z,11.10
2023-03-26T16:21:10.580Z,11.09
2023-03-26T16:22:10.567Z,11.09
2023-03-26T16:23:10.531Z,10.98
2023-03-26T16:24:10.518Z,10.94
2023-03-26T16:25:27.166Z,10.91
2023-03-26T16:26:10.513Z,10.88
2023-03-26T16:27:10.475Z,10.84
2023-03-26T16:28:10.521Z,10.83
2023-03-26T16:29:10.467Z,10.83
2023-03-26T16:30:10.446Z,10.88
2023-03-26T16:31:23.381Z,10.88
2023-03-26T16:32:11.026Z,10.81
2023-03-26T16:33:10.525Z,10.77
2023-03-26T16:34:10.398Z,10.71
2023-03-26T16:35:10.378Z,10.65
2023-03-26T16:36:10.520Z,10.63
2023-03-26T16:37:10.375Z,10.66
2023-03-26T16:38:10.392Z,10.68
2023-03-26T16:39:10.363Z,10.71
2023-03-26T16:40:10.370Z,10.70
2023-03-26T16:41:10.434Z,10.63
2023-03-26T16:42:10.401Z,10.63
2023-03-26T16:43:10.404Z,10.56
2023-03-26T16:44:10.313Z,10.58
2023-03-26T16:45:10.528Z,10.58
2023-03-26T16:46:10.395Z,10.60
2023-03-26T16:47:10.283Z,10.59
2023-03-26T16:48:10.251Z,10.58
2023-03-26T16:49:10.249Z,10.53
2023-03-26T16:50:10.225Z,10.46
2023-03-26T16:51:10.218Z,10.46
2023-03-26T16:52:10.225Z,10.46
2023-03-26T16:53:10.234Z,10.42
2023-03-26T16:54:10.219Z,10.44
2023-03-26T16:55:10.224Z,10.46
2023-03-26T16:56:10.164Z,10.43
2023-03-26T16:57:10.273Z,10.36
2023-03-26T16:58:10.125Z,10.34
2023-03-26T16:59:10.212Z,10.25
2023-03-26T17:00:10.138Z,10.25
2023-03-26T17:01:10.113Z,10.25
2023-03-26T17:02:10.225Z,10.19
2023-03-26T17:03:10.176Z,10.15
2023-03-26T17:04:10.100Z,10.19
2023-03-26T17:05:10.064Z,10.14
2023-03-26T17:06:10.045Z,10.14
2023-03-26T17:07:10.053Z,10.01
2023-03-26T17:08:10.035Z,9.97